Friday, December 14, 2018, 12:48 PM EST
Back to Local

KSLK, Adirondack Regional Airport

Location: Saranac Lake, NY, United States Lat: 44.4
Local Time: 12:48 PM EST (17:48 GMT) Lon: -74.2
Time Zone: US/Eastern Elev: 1663 ft

Show me the last for .
Show Decoded

2018-12-14 11:51 METAR KSLK 141651Z AUTO 22009KT 10SM OVC012 02/01 A3022 RMK AO2 SLP252 T00220006
                 =
2018-12-14 10:51 METAR KSLK 141551Z AUTO 23010KT 10SM OVC012 02/00 A3026 RMK AO2 SLP268 T00170000
                 =
2018-12-14 09:51 METAR KSLK 141451Z AUTO 21014KT 10SM OVC013 02/00 A3028 RMK AO2 SLP275 60000
                 T00170000 53000 =
2018-12-14 08:51 METAR KSLK 141351Z AUTO 20010KT 10SM OVC014 02/00 A3027 RMK AO2 SLP271 T00170000
                 =
2018-12-14 08:27 METAR KSLK 141327Z AUTO 20010KT 10SM OVC014 01/00 A3028 RMK AO2 T00110000 =
2018-12-14 07:51 METAR KSLK 141251Z AUTO 21010KT 9SM OVC018 00/M02 A3028 RMK AO2 SNE1158B15E47
                 SLP277 P0000 T00001017 $ =
2018-12-14 06:51 METAR KSLK 141151Z AUTO 23005KT 9SM -SN BKN020 M03/M03 A3028 RMK AO2 SLP277
                 P0000 60000 T10281033 11011 21033 56006 =
2018-12-14 05:51 METAR KSLK 141051Z AUTO 22007KT 9SM -SN OVC028 M02/M02 A3029 RMK AO2 SNB11
                 SLP278 P0000 T10171022 $ =
2018-12-14 04:51 METAR KSLK 140951Z AUTO 22004KT 10SM OVC016 M03/M03 A3028 RMK AO2 SLP277
                 T10281033 $ =
2018-12-14 03:51 METAR KSLK 140851Z AUTO 26003KT 10SM OVC015 M02/M02 A3030 RMK AO2 SLP282 60000
                 T10171022 58007 $ =
2018-12-14 03:36 METAR KSLK 140836Z AUTO 00000KT 10SM OVC015 M01/M02 A3030 RMK AO2 T10111022 $ =
2018-12-14 03:20 METAR KSLK 140820Z AUTO 29003KT 10SM OVC014 M02/M02 A3031 RMK AO2 T10171022 $ =
2018-12-14 02:51 METAR KSLK 140751Z AUTO 26005KT 10SM OVC015 M01/M02 A3032 RMK AO2 SLP290
                 T10111022 $ =
2018-12-14 02:18 METAR KSLK 140718Z AUTO 26006KT 10SM OVC015 M01/M02 A3033 RMK AO2 T10111022 =
2018-12-14 01:51 METAR KSLK 140651Z AUTO 25007KT 10SM OVC013 M02/M03 A3033 RMK AO2 SNB14E41
                 SLP293 P0000 T10171028 =
2018-12-14 00:51 METAR KSLK 140551Z AUTO 19003KT 10SM OVC014 M03/M04 A3032 RMK AO2 SLP293 60000
                 T10331044 11028 21050 58005 =
2018-12-14 00:46 METAR KSLK 140546Z AUTO 20003KT 10SM OVC014 M03/M04 A3032 RMK AO2 =
2018-12-13 23:51 METAR KSLK 140451Z AUTO 26005KT 10SM FEW017 BKN023 M04/M05 A3034 RMK AO2 SLP303
                 T10391050 410221256 =
2018-12-13 23:35 METAR KSLK 140435Z AUTO 00000KT 10SM SCT012 BKN023 M04/M05 A3034 RMK AO2
                 T10441050 =
2018-12-13 23:06 METAR KSLK 140406Z AUTO 23004KT 10SM BKN013 OVC025 M03/M04 A3034 RMK AO2
                 T10281039 =
2018-12-13 22:51 METAR KSLK 140351Z AUTO 00000KT 10SM FEW015 OVC025 M03/M04 A3034 RMK AO2 SLP303
                 T10331044 =
2018-12-13 21:51 METAR KSLK 140251Z AUTO 00000KT 10SM BKN015 OVC031 M03/M04 A3035 RMK AO2 SLP309
                 60000 T10331044 51004 =
2018-12-13 20:51 METAR KSLK 140151Z AUTO 00000KT 9SM SCT016 OVC028 M03/M04 A3035 RMK AO2 SNE46
                 SLP313 P0000 T10331044 =
2018-12-13 20:10 METAR KSLK 140110Z AUTO 24004KT 9SM -SN OVC015 M03/M05 A3034 RMK AO2 P0000
                 T10331050 =
2018-12-13 19:51 METAR KSLK 140051Z AUTO 22004KT 9SM -SN OVC014 M03/M05 A3034 RMK AO2 SNB2354
                 SLP312 P0000 T10331050 =
2018-12-13 19:46 METAR KSLK 140046Z AUTO 00000KT 10SM -SN OVC014 M03/M05 A3034 RMK AO2 SNB2354
                 P0000 =
2018-12-13 18:51 METAR KSLK 132351Z AUTO 00000KT 9SM OVC015 M03/M05 A3034 RMK AO2
                 SNB2253E02B04E51 SLP312 P0000 60000 T10281050 11022 21056 53009 =
2018-12-13 17:51 METAR KSLK 132251Z AUTO 00000KT 9SM OVC015 M03/M05 A3032 RMK AO2 SNE02B40E48
                 SLP307 P0000 T10281050 =
2018-12-13 16:51 METAR KSLK 132151Z AUTO 24004KT 10SM -SN OVC018 M03/M06 A3033 RMK AO2 SNB15
                 SLP307 P0000 T10281056 =
2018-12-13 15:51 METAR KSLK 132051Z AUTO 25006KT 10SM OVC019 M02/M06 A3031 RMK AO2 SLP303
                 T10221056 53018 =
2018-12-13 15:23 METAR KSLK 132023Z AUTO 23006KT 10SM BKN020 OVC031 M02/M06 A3029 RMK AO2
                 T10221056 =
2018-12-13 14:51 METAR KSLK 131951Z AUTO 19003KT 10SM OVC030 M03/M06 A3028 RMK AO2 SLP290
                 T10331056 =
2018-12-13 14:37 METAR KSLK 131937Z AUTO 22003KT 10SM SCT022 OVC030 M03/M06 A3027 RMK AO2
                 T10281061 =
2018-12-13 13:51 METAR KSLK 131851Z AUTO 00000KT 10SM BKN025 M03/M06 A3026 RMK AO2 SLP285
                 T10281061 =
2018-12-13 12:51 METAR KSLK 131751Z AUTO 22003KT 10SM FEW023 M06/M07 A3026 RMK AO2 SNE1655 SLP285
                 P0000 60000 T10611072 11061 21222 58008 =

Support USWX by starting your Amazon purchase here.